createdAt,value
2022-10-28T00:02:09.255Z,100.00
2022-10-28T00:04:37.054Z,100.00
2022-10-28T00:07:04.897Z,100.00
2022-10-28T00:09:34.805Z,100.00
2022-10-28T00:12:02.360Z,100.00
2022-10-28T00:14:30.362Z,100.00
2022-10-28T00:16:58.188Z,100.00
2022-10-28T00:19:26.010Z,100.00
2022-10-28T00:21:53.702Z,100.00
2022-10-28T00:24:21.389Z,100.00
2022-10-28T00:26:50.397Z,100.00
2022-10-28T00:29:19.692Z,100.00
2022-10-28T00:31:48.077Z,100.00
2022-10-28T00:34:16.629Z,100.00
2022-10-28T00:36:45.640Z,100.00
2022-10-28T00:39:14.009Z,100.00
2022-10-28T00:41:43.091Z,100.00
2022-10-28T00:44:29.772Z,100.00
2022-10-28T00:46:59.058Z,100.00
2022-10-28T00:49:29.006Z,100.00
2022-10-28T00:51:58.120Z,100.00
2022-10-28T00:54:25.946Z,100.00
2022-10-28T00:56:55.828Z,100.00
2022-10-28T00:59:26.119Z,100.00
2022-10-28T01:01:53.981Z,100.00
2022-10-28T01:04:23.687Z,100.00
2022-10-28T01:06:52.364Z,100.00
2022-10-28T01:15:13.699Z,100.00
2022-10-28T01:17:47.521Z,100.00
2022-10-28T01:20:39.675Z,100.00
2022-10-28T01:23:14.625Z,100.00
2022-10-28T01:25:53.934Z,100.00
2022-10-28T01:28:35.278Z,100.00
2022-10-28T01:31:14.342Z,100.00
2022-10-28T01:33:44.611Z,100.00
2022-10-28T01:36:14.579Z,100.00
2022-10-28T01:38:45.840Z,100.00
2022-10-28T01:41:16.785Z,100.00
2022-10-28T01:43:48.271Z,100.00
2022-10-28T01:46:20.275Z,100.00
2022-10-28T01:48:51.535Z,100.00
2022-10-28T01:51:22.780Z,100.00
2022-10-28T01:53:53.093Z,100.00
2022-10-28T01:56:24.685Z,100.00
2022-10-28T01:58:55.152Z,100.00
2022-10-28T02:01:25.204Z,100.00
2022-10-28T02:03:53.269Z,100.00
2022-10-28T02:06:24.844Z,100.00
2022-10-28T02:09:07.476Z,100.00
2022-10-28T02:11:46.886Z,100.00
2022-10-28T02:14:21.759Z,100.00
2022-10-28T02:16:51.633Z,100.00
2022-10-28T02:19:26.844Z,100.00
2022-10-28T02:21:59.424Z,100.00
2022-10-28T02:24:32.736Z,100.00
2022-10-28T02:27:07.907Z,100.00
2022-10-28T02:29:39.492Z,100.00
2022-10-28T02:32:10.233Z,100.00
2022-10-28T02:34:41.507Z,100.00
2022-10-28T02:37:12.237Z,100.00
2022-10-28T02:39:45.176Z,100.00
2022-10-28T02:42:15.096Z,100.00
2022-10-28T02:44:46.566Z,100.00
2022-10-28T02:47:18.306Z,100.00
2022-10-28T02:49:49.100Z,100.00
2022-10-28T02:52:18.252Z,100.00
2022-10-28T02:54:50.225Z,100.00
2022-10-28T02:57:19.269Z,100.00
2022-10-28T02:59:52.459Z,100.00
2022-10-28T03:02:21.422Z,100.00
2022-10-28T03:04:49.059Z,100.00
2022-10-28T03:07:17.175Z,100.00
2022-10-28T03:09:44.936Z,100.00
2022-10-28T03:12:12.810Z,100.00
2022-10-28T03:14:40.507Z,100.00
2022-10-28T03:17:08.803Z,100.00
2022-10-28T03:19:39.780Z,100.00
2022-10-28T03:22:07.761Z,100.00
2022-10-28T03:24:35.538Z,100.00
2022-10-28T03:27:03.242Z,100.00
2022-10-28T03:29:31.111Z,100.00
2022-10-28T03:31:58.875Z,100.00
2022-10-28T03:34:26.756Z,100.00
2022-10-28T03:36:55.839Z,100.00
2022-10-28T03:39:23.754Z,100.00
2022-10-28T03:41:51.391Z,100.00
2022-10-28T03:44:19.427Z,100.00
2022-10-28T03:46:47.300Z,100.00
2022-10-28T03:49:15.098Z,100.00
2022-10-28T03:51:42.952Z,100.00
2022-10-28T03:54:12.210Z,100.00
2022-10-28T03:56:40.692Z,100.00
2022-10-28T03:59:10.068Z,100.00
2022-10-28T04:01:38.239Z,100.00
2022-10-28T04:04:06.200Z,100.00
2022-10-28T04:06:33.806Z,100.00
2022-10-28T04:09:01.527Z,100.00
2022-10-28T04:11:30.741Z,100.00
2022-10-28T04:13:58.390Z,100.00
2022-10-28T04:16:26.793Z,100.00
2022-10-28T04:18:55.544Z,100.00
2022-10-28T04:21:24.327Z,100.00
2022-10-28T04:23:52.050Z,100.00
2022-10-28T04:26:19.876Z,100.00
2022-10-28T04:28:48.998Z,100.00
2022-10-28T04:31:16.784Z,100.00
2022-10-28T04:33:44.436Z,100.00
2022-10-28T04:36:12.062Z,100.00
2022-10-28T04:38:39.949Z,100.00
2022-10-28T04:41:07.557Z,100.00
2022-10-28T04:43:35.653Z,100.00
2022-10-28T04:46:06.143Z,100.00
2022-10-28T04:48:33.985Z,100.00
2022-10-28T04:51:02.225Z,100.00
2022-10-28T04:53:29.999Z,100.00
2022-10-28T04:55:59.052Z,100.00
2022-10-28T04:58:26.945Z,100.00
2022-10-28T05:00:56.921Z,100.00
2022-10-28T05:03:25.968Z,100.00
2022-10-28T05:05:53.736Z,100.00
2022-10-28T05:08:21.458Z,100.00
2022-10-28T05:10:51.144Z,100.00
2022-10-28T05:13:18.812Z,100.00
2022-10-28T05:15:48.564Z,100.00
2022-10-28T05:18:16.504Z,100.00
2022-10-28T05:20:45.689Z,100.00
2022-10-28T05:23:15.742Z,100.00
2022-10-28T05:25:43.867Z,100.00
2022-10-28T05:28:11.783Z,100.00
2022-10-28T05:30:39.998Z,100.00
2022-10-28T05:33:07.657Z,100.00
2022-10-28T05:35:35.450Z,100.00
2022-10-28T05:38:04.428Z,100.00
2022-10-28T05:40:32.711Z,100.00
2022-10-28T05:43:00.466Z,100.00
2022-10-28T05:48:01.487Z,100.00
2022-10-28T05:50:29.857Z,100.00
2022-10-28T05:53:00.400Z,100.00
2022-10-28T05:55:30.081Z,100.00
2022-10-28T05:57:58.258Z,100.00
2022-10-28T06:00:27.258Z,100.00
2022-10-28T06:03:02.605Z,100.00
2022-10-28T06:05:30.960Z,100.00
2022-10-28T06:07:58.870Z,100.00
2022-10-28T06:10:26.767Z,100.00
2022-10-28T06:12:55.933Z,100.00
2022-10-28T06:15:24.070Z,100.00
2022-10-28T06:17:55.082Z,100.00
2022-10-28T06:20:23.000Z,100.00
2022-10-28T06:22:51.440Z,100.00
2022-10-28T06:25:20.392Z,100.00
2022-10-28T06:27:52.357Z,100.00
2022-10-28T06:30:22.028Z,100.00
2022-10-28T06:32:51.199Z,100.00
2022-10-28T06:35:19.106Z,100.00
2022-10-28T06:37:47.209Z,100.00
2022-10-28T06:40:15.136Z,100.00
2022-10-28T06:42:43.170Z,100.00
2022-10-28T06:45:11.431Z,100.00
2022-10-28T06:47:42.266Z,100.00
2022-10-28T06:50:10.542Z,100.00
2022-10-28T06:52:38.596Z,100.00
2022-10-28T06:55:07.301Z,100.00
2022-10-28T06:57:35.125Z,100.00
2022-10-28T07:00:03.151Z,100.00
2022-10-28T07:02:31.907Z,100.00
2022-10-28T07:05:01.353Z,100.00
2022-10-28T07:07:29.233Z,100.00
2022-10-28T07:09:58.531Z,100.00
2022-10-28T07:12:27.988Z,100.00
2022-10-28T07:14:56.467Z,100.00
2022-10-28T07:17:24.432Z,100.00
2022-10-28T07:19:52.795Z,100.00
2022-10-28T07:22:25.483Z,100.00
2022-10-28T07:24:54.786Z,100.00
2022-10-28T07:27:22.668Z,100.00
2022-10-28T07:29:50.687Z,100.00
2022-10-28T07:32:18.476Z,100.00
2022-10-28T07:34:47.275Z,100.00
2022-10-28T07:37:15.289Z,100.00
2022-10-28T07:39:44.682Z,100.00
2022-10-28T07:42:12.704Z,100.00
2022-10-28T07:44:40.845Z,100.00
2022-10-28T07:47:08.918Z,100.00
2022-10-28T07:49:37.007Z,100.00
2022-10-28T07:52:05.050Z,100.00
2022-10-28T07:54:35.308Z,100.00
2022-10-28T07:57:04.828Z,98.83
2022-10-28T07:59:32.893Z,97.78
2022-10-28T08:02:00.743Z,97.14
2022-10-28T08:04:30.684Z,95.94
2022-10-28T08:07:00.082Z,93.20
2022-10-28T08:09:29.976Z,91.51
2022-10-28T08:11:59.040Z,92.27
2022-10-28T08:14:28.406Z,92.70
2022-10-28T08:16:56.823Z,90.07
2022-10-28T08:19:24.788Z,86.61
2022-10-28T08:21:52.578Z,84.44
2022-10-28T08:24:20.735Z,82.38
2022-10-28T08:26:48.936Z,78.87
2022-10-28T08:29:16.978Z,77.02
2022-10-28T08:31:46.212Z,75.00
2022-10-28T08:34:14.172Z,74.41
2022-10-28T08:36:42.296Z,75.29
2022-10-28T08:39:10.416Z,75.17
2022-10-28T08:41:40.554Z,75.48
2022-10-28T08:44:21.769Z,75.57
2022-10-28T08:46:57.296Z,75.80
2022-10-28T08:49:25.592Z,74.07
2022-10-28T08:51:56.258Z,73.72
2022-10-28T08:54:26.364Z,72.44
2022-10-28T08:56:56.326Z,70.36
2022-10-28T08:59:27.186Z,68.18
2022-10-28T09:01:59.273Z,69.37
2022-10-28T09:04:31.215Z,69.26
2022-10-28T09:06:59.315Z,72.71
2022-10-28T09:09:27.317Z,75.78
2022-10-28T09:12:05.345Z,77.00
2022-10-28T09:14:44.940Z,82.39
2022-10-28T09:17:18.370Z,80.40
2022-10-28T09:19:48.862Z,77.10
2022-10-28T09:22:21.911Z,74.86
2022-10-28T09:24:52.699Z,70.75
2022-10-28T09:27:29.832Z,64.89
2022-10-28T09:30:04.824Z,59.73
2022-10-28T09:32:39.064Z,53.82
2022-10-28T09:35:08.331Z,51.45
2022-10-28T09:37:38.972Z,53.67
2022-10-28T09:40:15.293Z,55.66
2022-10-28T09:42:47.257Z,53.77
2022-10-28T09:45:17.829Z,48.89
2022-10-28T09:47:51.225Z,46.86
2022-10-28T09:50:22.739Z,43.44
2022-10-28T09:52:54.719Z,39.32
2022-10-28T09:55:23.688Z,38.88
2022-10-28T09:57:51.582Z,46.58
2022-10-28T10:00:19.951Z,47.56
2022-10-28T10:02:51.687Z,42.86
2022-10-28T10:05:19.962Z,40.58
2022-10-28T10:07:51.092Z,38.63
2022-10-28T10:10:27.252Z,38.71
2022-10-28T10:13:00.248Z,37.62
2022-10-28T10:15:30.898Z,31.99
2022-10-28T10:18:01.983Z,32.43
2022-10-28T10:20:42.218Z,29.56
2022-10-28T10:23:22.358Z,32.81
2022-10-28T10:25:55.281Z,31.27
2022-10-28T10:28:23.835Z,35.15
2022-10-28T10:30:53.729Z,34.33
2022-10-28T10:33:28.538Z,33.75
2022-10-28T10:36:02.973Z,30.56
2022-10-28T10:38:32.611Z,30.38
2022-10-28T10:41:02.012Z,30.83
2022-10-28T10:43:34.104Z,31.76
2022-10-28T10:46:03.495Z,32.63
2022-10-28T10:48:36.135Z,31.86
2022-10-28T10:51:10.076Z,32.14
2022-10-28T10:53:39.602Z,31.05
2022-10-28T10:56:09.636Z,30.74
2022-10-28T10:58:40.154Z,30.80
2022-10-28T11:01:09.752Z,30.36
2022-10-28T11:03:41.197Z,30.35
2022-10-28T11:06:25.409Z,28.49
2022-10-28T11:08:59.606Z,28.11
2022-10-28T11:11:35.953Z,26.93
2022-10-28T11:14:05.107Z,27.44
2022-10-28T11:16:36.111Z,30.02
2022-10-28T11:19:16.678Z,32.05
2022-10-28T11:21:50.775Z,32.51
2022-10-28T11:24:26.094Z,30.65
2022-10-28T11:26:57.762Z,28.21
2022-10-28T11:29:25.677Z,26.56
2022-10-28T11:32:04.128Z,27.54
2022-10-28T11:37:32.632Z,26.57
2022-10-28T11:40:13.893Z,24.72
2022-10-28T11:42:48.002Z,24.75
2022-10-28T11:45:22.049Z,24.60
2022-10-28T11:47:58.450Z,26.22
2022-10-28T11:50:52.871Z,26.44
2022-10-28T11:53:27.805Z,25.88
2022-10-28T11:55:59.639Z,26.45
2022-10-28T11:58:33.578Z,27.40
2022-10-28T12:01:08.922Z,28.46
2022-10-28T12:04:03.932Z,27.91
2022-10-28T12:06:39.721Z,27.73
2022-10-28T12:09:24.753Z,28.33
2022-10-28T12:12:00.916Z,31.22
2022-10-28T12:14:32.847Z,33.78
2022-10-28T12:17:04.956Z,35.19
2022-10-28T12:19:35.155Z,34.96
2022-10-28T12:22:11.954Z,32.21
2022-10-28T12:24:41.091Z,30.30
2022-10-28T12:27:18.176Z,30.33
2022-10-28T12:29:50.042Z,31.43
2022-10-28T12:32:21.425Z,33.22
2022-10-28T12:34:52.925Z,34.39
2022-10-28T12:37:23.527Z,33.98
2022-10-28T12:39:55.649Z,32.50
2022-10-28T12:42:27.797Z,31.83
2022-10-28T12:44:57.409Z,31.04
2022-10-28T12:47:28.791Z,31.34
2022-10-28T12:50:04.334Z,29.91
2022-10-28T12:52:39.462Z,31.71
2022-10-28T12:55:12.424Z,33.28
2022-10-28T12:57:45.998Z,33.22
2022-10-28T13:00:19.246Z,32.69
2022-10-28T13:02:50.957Z,32.48
2022-10-28T13:05:22.149Z,30.58
2022-10-28T13:08:05.497Z,29.92
2022-10-28T13:10:38.693Z,30.37
2022-10-28T13:13:26.163Z,32.61
2022-10-28T13:16:01.259Z,33.87
2022-10-28T13:18:48.370Z,34.91
2022-10-28T13:21:23.293Z,35.61
2022-10-28T13:23:56.689Z,36.86
2022-10-28T13:26:28.315Z,38.07
2022-10-28T13:28:58.177Z,39.19
2022-10-28T13:31:37.544Z,38.98
2022-10-28T13:34:06.012Z,35.36
2022-10-28T13:36:36.419Z,32.26
2022-10-28T13:39:09.008Z,29.39
2022-10-28T13:41:37.225Z,30.16
2022-10-28T13:44:16.358Z,31.77
2022-10-28T13:47:02.985Z,34.78
2022-10-28T13:49:35.874Z,36.30
2022-10-28T13:52:18.534Z,38.82
2022-10-28T13:54:55.372Z,40.82
2022-10-28T13:57:26.950Z,41.73
2022-10-28T13:59:57.478Z,42.07
2022-10-28T14:02:38.157Z,41.75
2022-10-28T14:05:34.800Z,41.31
2022-10-28T14:08:05.873Z,41.41
2022-10-28T14:10:41.627Z,41.21
2022-10-28T14:13:17.425Z,38.47
2022-10-28T14:21:18.281Z,36.75
2022-10-28T14:27:13.413Z,34.59
2022-10-28T14:29:45.788Z,37.16
2022-10-28T14:32:34.984Z,40.08
2022-10-28T14:35:04.506Z,42.84
2022-10-28T14:37:56.556Z,44.22
2022-10-28T14:40:33.656Z,44.60
2022-10-28T14:43:08.293Z,44.59
2022-10-28T14:45:42.241Z,45.38
2022-10-28T14:48:24.065Z,45.59
2022-10-28T14:50:54.298Z,46.11
2022-10-28T14:53:31.760Z,46.06
2022-10-28T14:56:12.969Z,47.75
2022-10-28T14:58:43.200Z,47.14
2022-10-28T15:01:20.834Z,47.78
2022-10-28T15:03:49.942Z,48.69
2022-10-28T15:06:41.588Z,49.83
2022-10-28T15:09:15.770Z,50.35
2022-10-28T15:11:51.163Z,50.87
2022-10-28T15:17:16.221Z,51.62
2022-10-28T15:19:45.518Z,51.86
2022-10-28T15:22:15.798Z,52.44
2022-10-28T15:24:47.127Z,52.96
2022-10-28T15:27:17.266Z,53.72
2022-10-28T15:29:45.636Z,53.99
2022-10-28T15:32:19.025Z,54.42
2022-10-28T15:34:47.043Z,54.84
2022-10-28T15:37:18.951Z,56.01
2022-10-28T15:39:58.658Z,55.89
2022-10-28T15:42:39.400Z,56.63
2022-10-28T15:45:09.039Z,57.28
2022-10-28T15:47:38.007Z,57.67
2022-10-28T15:50:25.336Z,57.55
2022-10-28T15:52:55.264Z,58.03
2022-10-28T15:56:02.300Z,58.79
2022-10-28T15:58:33.882Z,59.98
2022-10-28T16:01:01.955Z,60.39
2022-10-28T16:03:42.298Z,61.92
2022-10-28T16:06:24.539Z,63.70
2022-10-28T16:09:16.510Z,65.13
2022-10-28T16:11:46.469Z,66.17
2022-10-28T16:14:37.024Z,67.00
2022-10-28T16:17:14.274Z,67.98
2022-10-28T16:19:44.309Z,67.86
2022-10-28T16:22:15.640Z,67.72
2022-10-28T16:24:43.890Z,68.38
2022-10-28T17:23:24.279Z,71.85
2022-10-28T17:26:01.014Z,72.32
2022-10-28T17:28:29.368Z,72.97
2022-10-28T17:31:02.794Z,73.39
2022-10-28T17:33:30.901Z,73.53
2022-10-28T17:36:02.525Z,73.46
2022-10-28T17:38:31.202Z,73.41
2022-10-28T17:41:00.708Z,72.19
2022-10-28T17:43:29.052Z,71.84
2022-10-28T17:46:04.086Z,71.62
2022-10-28T17:48:32.295Z,71.82
2022-10-28T17:51:00.238Z,71.68
2022-10-28T17:53:28.287Z,71.55
2022-10-28T17:55:58.451Z,72.27
2022-10-28T17:58:28.378Z,72.85
2022-10-28T18:00:59.829Z,73.60
2022-10-28T18:03:32.775Z,73.82
2022-10-28T18:06:04.390Z,74.09
2022-10-28T18:08:33.600Z,74.47
2022-10-28T18:11:01.908Z,75.06
2022-10-28T18:13:32.099Z,75.17
2022-10-28T18:16:05.111Z,74.58
2022-10-28T18:18:37.437Z,74.81
2022-10-28T18:21:09.706Z,75.26
2022-10-28T18:23:37.635Z,75.17
2022-10-28T18:26:06.566Z,75.55
2022-10-28T18:28:36.817Z,75.60
2022-10-28T18:31:05.767Z,75.88
2022-10-28T18:33:34.647Z,76.25
2022-10-28T18:36:05.931Z,75.41
2022-10-28T18:38:34.531Z,75.24
2022-10-28T18:41:02.690Z,75.17
2022-10-28T18:43:31.054Z,75.19
2022-10-28T18:46:03.129Z,75.03
2022-10-28T18:48:31.609Z,74.47
2022-10-28T18:51:03.611Z,74.77
2022-10-28T18:53:31.615Z,74.98
2022-10-28T18:56:01.804Z,75.00
2022-10-28T18:58:29.778Z,75.39
2022-10-28T19:01:06.401Z,75.60
2022-10-28T19:03:34.464Z,75.90
2022-10-28T19:06:03.470Z,75.68
2022-10-28T19:08:31.486Z,75.69
2022-10-28T19:11:00.195Z,75.77
2022-10-28T19:13:28.354Z,75.46
2022-10-28T19:15:56.185Z,75.22
2022-10-28T19:18:26.125Z,75.30
2022-10-28T19:20:56.815Z,75.02
2022-10-28T19:23:25.201Z,75.46
2022-10-28T19:25:56.915Z,75.39
2022-10-28T19:28:24.932Z,75.18
2022-10-28T19:31:00.395Z,73.88
2022-10-28T19:33:29.944Z,72.45
2022-10-28T19:36:02.008Z,72.23
2022-10-28T19:38:33.703Z,72.13
2022-10-28T19:41:06.085Z,72.05
2022-10-28T19:43:34.376Z,71.54
2022-10-28T19:46:06.094Z,71.79
2022-10-28T19:48:35.532Z,72.10
2022-10-28T19:51:03.499Z,71.76
2022-10-28T19:53:31.430Z,72.26
2022-10-28T19:56:00.248Z,72.61
2022-10-28T19:58:28.922Z,72.74
2022-10-28T20:01:01.119Z,74.12
2022-10-28T20:03:34.212Z,74.94
2022-10-28T20:06:07.564Z,74.65
2022-10-28T20:08:36.679Z,75.20
2022-10-28T20:11:10.923Z,75.89
2022-10-28T20:13:40.388Z,76.89
2022-10-28T20:16:24.664Z,78.26
2022-10-28T20:18:58.195Z,79.27
2022-10-28T20:21:28.878Z,80.17
2022-10-28T20:23:57.506Z,80.29
2022-10-28T20:26:26.288Z,79.92
2022-10-28T20:28:54.460Z,79.75
2022-10-28T20:31:23.805Z,79.99
2022-10-28T20:33:55.422Z,79.70
2022-10-28T20:36:24.947Z,81.09
2022-10-28T20:38:57.997Z,82.63
2022-10-28T20:41:26.776Z,84.63
2022-10-28T20:43:55.318Z,85.51
2022-10-28T20:46:25.007Z,85.16
2022-10-28T20:48:54.667Z,85.28
2022-10-28T20:51:26.490Z,85.25
2022-10-28T20:53:54.881Z,84.29
2022-10-28T20:56:25.877Z,83.33
2022-10-28T20:58:54.451Z,83.03
2022-10-28T21:01:23.819Z,82.87
2022-10-28T21:03:54.308Z,82.20
2022-10-28T21:06:23.120Z,82.04
2022-10-28T21:08:51.237Z,81.95
2022-10-28T21:11:20.073Z,82.94
2022-10-28T21:13:53.207Z,83.94
2022-10-28T21:16:21.820Z,84.69
2022-10-28T21:18:49.743Z,85.21
2022-10-28T21:21:18.564Z,85.05
2022-10-28T21:23:46.537Z,84.29
2022-10-28T21:26:14.699Z,83.96
2022-10-28T21:28:42.667Z,84.75
2022-10-28T21:31:13.037Z,85.57
2022-10-28T21:33:44.302Z,86.41
2022-10-28T21:36:12.813Z,88.47
2022-10-28T21:38:41.047Z,89.82
2022-10-28T21:41:10.926Z,88.86
2022-10-28T21:43:39.722Z,88.24
2022-10-28T21:46:08.213Z,87.64
2022-10-28T21:48:37.919Z,86.86
2022-10-28T21:51:09.895Z,87.08
2022-10-28T21:53:42.764Z,86.78
2022-10-28T21:56:16.630Z,88.09
2022-10-28T21:58:46.305Z,90.35
2022-10-28T22:01:15.245Z,91.44
2022-10-28T22:03:44.432Z,92.11
2022-10-28T22:06:12.519Z,93.72
2022-10-28T22:08:40.629Z,96.47
2022-10-28T22:11:09.321Z,99.09
2022-10-28T22:13:39.936Z,100.00
2022-10-28T22:16:08.860Z,100.00
2022-10-28T22:18:39.565Z,100.00
2022-10-28T22:21:11.242Z,100.00
2022-10-28T22:23:39.719Z,99.95
2022-10-28T22:26:08.190Z,99.53
2022-10-28T22:28:36.186Z,98.33
2022-10-28T22:31:07.207Z,97.69
2022-10-28T22:33:35.137Z,97.26
2022-10-28T22:36:04.042Z,96.95
2022-10-28T22:38:33.427Z,97.00
2022-10-28T22:41:05.638Z,96.65
2022-10-28T22:43:36.632Z,95.77
2022-10-28T22:46:04.832Z,96.11
2022-10-28T22:48:32.852Z,97.02
2022-10-28T22:51:01.059Z,98.26
2022-10-28T22:53:28.873Z,99.11
2022-10-28T22:55:58.197Z,100.00
2022-10-28T22:58:27.725Z,100.00
2022-10-28T23:01:05.042Z,100.00
2022-10-28T23:03:35.791Z,100.00
2022-10-28T23:06:03.602Z,100.00
2022-10-28T23:08:31.326Z,99.48
2022-10-28T23:11:00.429Z,99.19
2022-10-28T23:13:28.415Z,98.55
2022-10-28T23:15:56.446Z,97.79
2022-10-28T23:18:27.146Z,97.66
2022-10-28T23:20:54.984Z,97.56
2022-10-28T23:23:25.377Z,97.79
2022-10-28T23:25:53.710Z,97.58
2022-10-28T23:28:22.847Z,97.18
2022-10-28T23:30:50.602Z,96.50
2022-10-28T23:33:18.522Z,96.43
2022-10-28T23:35:46.409Z,95.04
2022-10-28T23:38:16.618Z,93.93
2022-10-28T23:40:44.625Z,92.92
2022-10-28T23:43:12.750Z,92.33
2022-10-28T23:45:41.836Z,91.48
2022-10-28T23:48:09.672Z,90.34
2022-10-28T23:50:37.477Z,90.32
2022-10-28T23:53:05.630Z,90.37
2022-10-28T23:55:33.471Z,90.38
2022-10-28T23:58:01.957Z,89.90
